Time;durP1;ratioP1;P1;durP2;ratioP2;P2;SDS_P1;SDS_P2;PMS_P1;PMS_P2;Temp;Humidity;BMP_temperature;BMP_pressure;BME280_temperature;BME280_humidity;BME280_pressure;Samples;Min_cycle;Max_cycle;Signal;HPM_P1;HPM_P2
2022/01/26 00:00:30;;;;;;;67.00;25.80;;;6.70;99.90;;;;;;5128133;27;20038;-72
2022/01/26 00:05:52;;;;;;;62.00;21.95;;;6.00;99.90;;;;;;5115046;27;20147;-72
2022/01/26 00:08:23;;;;;;;78.72;27.33;;;6.70;99.90;;;;;;5130067;27;20715;-72
2022/01/26 00:10:49;;;;;;;75.38;26.75;;;6.60;99.90;;;;;;5110572;27;20057;-73
2022/01/26 00:13:14;;;;;;;73.15;29.15;;;6.10;99.90;;;;;;5111696;27;20791;-74
2022/01/26 00:15:40;;;;;;;62.75;23.67;;;6.70;99.90;;;;;;5129826;27;20050;-72
2022/01/26 00:18:06;;;;;;;73.45;25.65;;;6.60;99.90;;;;;;5111941;27;20073;-72
2022/01/26 00:20:44;;;;;;;69.97;25.25;;;6.60;99.90;;;;;;5128168;27;20178;-71
2022/01/26 00:26:04;;;;;;;75.57;26.15;;;6.00;99.90;;;;;;5121767;27;20054;-74
2022/01/26 00:32:56;;;;;;;69.28;25.98;;;5.90;99.90;;;;;;5114380;27;19919;-70
2022/01/26 00:39:29;;;;;;;64.55;23.60;;;6.60;99.90;;;;;;5127078;27;20122;-71
2022/01/26 00:41:57;;;;;;;76.13;27.92;;;6.70;99.90;;;;;;5093743;27;20121;-71
2022/01/26 00:44:31;;;;;;;74.47;26.23;;;6.70;99.90;;;;;;5111469;27;20042;-71
2022/01/26 00:46:58;;;;;;;72.37;25.70;;;6.60;99.90;;;;;;5129712;27;20717;-71
2022/01/26 00:49:24;;;;;;;69.22;24.27;;;6.20;99.90;;;;;;5111352;27;20292;-72
2022/01/26 00:51:51;;;;;;;58.13;21.73;;;6.70;99.90;;;;;;5111856;27;20047;-72
2022/01/26 00:54:17;;;;;;;70.10;25.55;;;6.20;99.90;;;;;;5110267;27;20042;-73
2022/01/26 00:56:43;;;;;;;69.47;25.08;;;5.90;99.90;;;;;;5092705;27;20050;-72
2022/01/26 00:59:10;;;;;;;74.45;25.95;;;6.70;99.90;;;;;;5114533;27;20138;-72
2022/01/26 01:01:36;;;;;;;60.38;22.85;;;6.80;99.90;;;;;;5094993;27;20068;-72
2022/01/26 01:04:02;;;;;;;68.43;24.98;;;5.90;99.90;;;;;;5111294;27;20038;-73
2022/01/26 01:06:32;;;;;;;64.03;23.23;;;6.10;99.90;;;;;;5127809;27;20852;-73
2022/01/26 01:08:58;;;;;;;63.67;22.38;;;6.80;99.90;;;;;;5128076;27;20046;-72
2022/01/26 01:11:25;;;;;;;73.55;25.50;;;5.90;99.90;;;;;;5111024;27;20838;-73
2022/01/26 01:13:52;;;;;;;81.03;25.83;;;6.50;99.90;;;;;;5111145;27;20049;-73
2022/01/26 01:16:21;;;;;;;74.80;26.13;;;6.60;99.90;;;;;;5127203;27;20038;-72
2022/01/26 01:31:43;;;;;;;61.22;23.98;;;6.10;99.90;;;;;;5128623;27;20046;-72
2022/01/26 01:34:10;;;;;;;61.80;21.92;;;7.00;99.90;;;;;;5110395;27;20047;-72
2022/01/26 01:36:38;;;;;;;73.13;26.52;;;6.30;99.90;;;;;;5109451;27;20053;-72
2022/01/26 01:39:08;;;;;;;87.13;29.08;;;6.60;99.90;;;;;;5110563;27;20042;-72
2022/01/26 01:41:36;;;;;;;75.50;26.45;;;6.10;99.90;;;;;;5110275;27;20043;-72
2022/01/26 01:44:03;;;;;;;78.65;29.17;;;6.50;99.90;;;;;;5109952;27;20486;-72
2022/01/26 01:46:30;;;;;;;77.30;29.85;;;6.20;99.90;;;;;;5112047;27;20451;-72
2022/01/26 01:48:55;;;;;;;77.15;27.63;;;6.60;99.90;;;;;;5133546;27;20126;-74
2022/01/26 01:51:28;;;;;;;63.47;24.17;;;5.90;99.90;;;;;;5133604;27;20125;-74
2022/01/26 01:53:53;;;;;;;77.90;26.27;;;6.40;99.90;;;;;;5134673;27;20102;-73
2022/01/26 01:56:23;;;;;;;75.88;26.23;;;6.40;99.90;;;;;;5133615;27;20051;-74
2022/01/26 01:58:49;;;;;;;72.63;25.67;;;6.10;99.90;;;;;;5134576;27;20121;-73
2022/01/26 02:01:15;;;;;;;72.38;24.77;;;6.80;99.90;;;;;;5113304;27;20548;-74
2022/01/26 02:03:40;;;;;;;76.50;27.38;;;6.20;99.90;;;;;;5114136;27;20039;-73
2022/01/26 02:06:06;;;;;;;86.20;28.67;;;5.80;99.90;;;;;;5115161;27;20196;-73
2022/01/26 02:08:32;;;;;;;78.47;28.02;;;5.80;99.90;;;;;;5105231;27;20070;-74
2022/01/26 02:10:58;;;;;;;71.18;24.70;;;5.90;99.90;;;;;;5096892;27;20092;-74
2022/01/26 02:13:32;;;;;;;73.30;24.35;;;6.50;99.90;;;;;;5080517;27;20039;-74
2022/01/26 02:54:35;;;;;;;71.15;26.15;;;6.30;99.90;;;;;;5133551;27;20592;-74
2022/01/26 03:02:29;;;;;;;88.53;30.38;;;5.90;99.90;;;;;;5117102;27;20057;-73
2022/01/26 03:05:00;;;;;;;71.03;24.70;;;5.90;99.90;;;;;;5115779;27;20113;-74
2022/01/26 03:07:53;;;;;;;79.10;26.10;;;5.70;99.90;;;;;;5116750;27;20050;-74
2022/01/26 03:10:19;;;;;;;71.05;25.92;;;5.70;99.90;;;;;;5116605;27;20043;-75
2022/01/26 03:12:54;;;;;;;67.40;25.58;;;6.30;99.90;;;;;;5131654;27;20099;-74
2022/01/26 03:15:29;;;;;;;81.78;28.60;;;6.30;99.90;;;;;;5132632;27;20043;-74
2022/01/26 03:20:41;;;;;;;76.07;26.80;;;5.50;99.90;;;;;;5107434;28;19916;-74
2022/01/26 03:36:28;;;;;;;78.38;26.08;;;5.70;99.90;;;;;;5097895;28;20368;-74
2022/01/26 03:39:02;;;;;;;84.90;28.90;;;5.50;99.90;;;;;;5105934;27;20030;-74
2022/01/26 03:41:38;;;;;;;84.72;29.63;;;5.40;99.90;;;;;;5132220;27;20035;-74
2022/01/26 03:44:05;;;;;;;75.10;27.75;;;5.60;99.90;;;;;;5114507;27;20050;-71
2022/01/26 03:46:31;;;;;;;75.20;26.45;;;6.00;99.90;;;;;;5133009;27;20141;-74
2022/01/26 03:48:56;;;;;;;78.00;26.42;;;6.10;99.90;;;;;;5131604;27;20510;-74
2022/01/26 03:51:22;;;;;;;78.93;28.33;;;6.00;99.90;;;;;;5132682;27;20043;-74
2022/01/26 03:53:48;;;;;;;69.35;25.70;;;6.00;99.90;;;;;;5132496;27;20038;-74
2022/01/26 03:56:14;;;;;;;77.72;29.33;;;5.40;99.90;;;;;;5116241;27;20050;-74
2022/01/26 03:58:40;;;;;;;72.60;25.90;;;6.00;99.90;;;;;;5132675;27;20363;-74
2022/01/26 04:01:06;;;;;;;78.13;28.63;;;5.40;99.90;;;;;;5131571;27;20050;-74
2022/01/26 04:03:31;;;;;;;77.47;26.35;;;6.30;99.90;;;;;;5131582;27;20050;-74
2022/01/26 04:05:57;;;;;;;71.20;25.02;;;5.30;99.90;;;;;;5113428;27;20039;-74
2022/01/26 04:08:28;;;;;;;64.35;24.30;;;6.00;99.90;;;;;;5132557;27;20035;-74
2022/01/26 04:13:36;;;;;;;68.63;23.98;;;5.90;99.90;;;;;;5133436;27;20733;-74
2022/01/26 04:16:02;;;;;;;67.32;23.45;;;6.30;99.90;;;;;;5118831;27;20110;-74
2022/01/26 04:18:34;;;;;;;65.80;23.55;;;5.90;99.90;;;;;;5118477;27;20030;-75
2022/01/26 04:21:06;;;;;;;70.47;23.60;;;5.40;99.90;;;;;;5113341;27;20062;-73
2022/01/26 04:23:52;;;;;;;68.43;22.67;;;5.70;99.90;;;;;;5097761;27;20042;-74
2022/01/26 04:26:24;;;;;;;70.53;24.63;;;5.10;99.90;;;;;;5108174;27;20054;-74
2022/01/26 04:28:55;;;;;;;66.00;26.05;;;5.10;99.90;;;;;;5136515;27;20042;-74
2022/01/26 04:31:22;;;;;;;69.47;23.95;;;5.60;99.90;;;;;;5134454;27;20039;-74
2022/01/26 04:33:48;;;;;;;69.78;23.38;;;5.20;99.90;;;;;;5115491;27;20147;-73
2022/01/26 04:36:20;;;;;;;63.70;24.15;;;5.70;99.90;;;;;;5118670;27;20050;-74
2022/01/26 04:38:54;;;;;;;68.53;27.60;;;5.60;99.90;;;;;;5135832;27;20049;-75
2022/01/26 04:43:55;;;;;;;62.45;23.85;;;5.00;99.90;;;;;;5103041;27;20132;-74
2022/01/26 04:46:21;;;;;;;60.70;21.60;;;5.50;99.90;;;;;;5103305;27;20044;-75
2022/01/26 04:48:47;;;;;;;70.28;24.15;;;5.60;99.90;;;;;;5136059;27;20122;-74
2022/01/26 04:51:13;;;;;;;67.93;23.70;;;5.20;99.90;;;;;;5110468;27;20053;-73
2022/01/26 04:53:39;;;;;;;61.53;23.05;;;4.90;99.90;;;;;;5119284;27;20062;-74
2022/01/26 04:56:05;;;;;;;59.17;23.70;;;5.50;99.90;;;;;;5101587;27;20487;-74
2022/01/26 04:58:30;;;;;;;69.13;23.98;;;5.20;99.90;;;;;;5133028;27;20043;-73
2022/01/26 05:00:56;;;;;;;67.05;25.02;;;5.00;99.90;;;;;;5118180;27;20034;-74
2022/01/26 05:03:22;;;;;;;63.67;22.77;;;4.90;99.90;;;;;;5100288;27;20046;-75
2022/01/26 05:05:47;;;;;;;71.13;24.85;;;4.90;99.90;;;;;;5134355;27;20054;-74
2022/01/26 05:08:13;;;;;;;58.67;22.67;;;5.50;99.90;;;;;;5133201;27;20460;-74
2022/01/26 05:10:42;;;;;;;63.78;21.35;;;5.10;99.90;;;;;;5132603;27;20061;-74
2022/01/26 05:13:10;;;;;;;58.38;20.67;;;5.30;99.90;;;;;;5134743;27;20038;-74
2022/01/26 05:15:36;;;;;;;61.35;22.45;;;5.40;99.90;;;;;;5118213;27;20085;-74
2022/01/26 05:18:01;;;;;;;53.63;20.60;;;5.40;99.90;;;;;;5133052;27;20459;-73
2022/01/26 05:20:27;;;;;;;63.45;22.48;;;5.40;99.90;;;;;;5133928;27;20126;-73
2022/01/26 05:22:53;;;;;;;64.85;24.30;;;5.30;99.90;;;;;;5115159;27;20073;-74
2022/01/26 05:25:20;;;;;;;65.93;21.75;;;4.70;99.90;;;;;;5105725;27;20031;-74
2022/01/26 05:27:46;;;;;;;63.55;22.20;;;5.00;99.90;;;;;;5116517;27;20078;-74
2022/01/26 05:30:12;;;;;;;66.03;23.17;;;4.90;99.90;;;;;;5116108;27;20065;-74
2022/01/26 05:32:37;;;;;;;62.80;23.25;;;4.80;99.90;;;;;;5131295;27;20582;-74
2022/01/26 05:35:03;;;;;;;60.10;22.33;;;5.00;99.90;;;;;;5117369;27;20062;-74
2022/01/26 05:37:29;;;;;;;54.78;22.20;;;4.60;99.90;;;;;;5134867;27;20061;-74
2022/01/26 05:39:55;;;;;;;64.15;23.33;;;5.00;99.90;;;;;;5114627;27;20038;-75
2022/01/26 05:42:20;;;;;;;55.83;21.13;;;4.90;99.90;;;;;;5117016;27;20065;-74
2022/01/26 05:44:46;;;;;;;61.05;21.98;;;4.80;99.90;;;;;;5096300;27;20511;-73
2022/01/26 05:47:17;;;;;;;61.40;22.08;;;5.20;99.90;;;;;;5099882;27;20043;-74
2022/01/26 05:49:43;;;;;;;59.47;21.98;;;5.00;99.90;;;;;;5113738;27;20403;-73
2022/01/26 05:52:09;;;;;;;64.15;21.92;;;4.90;99.90;;;;;;5097471;27;20092;-74
2022/01/26 05:54:35;;;;;;;67.93;22.90;;;5.10;99.90;;;;;;5118842;27;20038;-74
2022/01/26 05:57:01;;;;;;;61.83;22.95;;;4.60;99.90;;;;;;5134479;27;20125;-74
2022/01/26 05:59:26;;;;;;;57.47;21.20;;;4.80;99.90;;;;;;5098240;27;20038;-74
2022/01/26 06:01:52;;;;;;;56.83;22.48;;;4.80;99.90;;;;;;5117599;27;20057;-74
2022/01/26 06:04:19;;;;;;;64.15;21.77;;;5.00;99.90;;;;;;5113961;27;20039;-74
2022/01/26 06:06:45;;;;;;;63.65;24.35;;;4.60;99.90;;;;;;5114346;27;21011;-74
2022/01/26 06:09:11;;;;;;;57.55;21.83;;;4.40;99.90;;;;;;5116777;27;20035;-73
2022/01/26 06:11:37;;;;;;;57.67;20.83;;;4.40;99.90;;;;;;5133418;27;20043;-74
2022/01/26 06:14:03;;;;;;;57.92;20.88;;;4.90;99.90;;;;;;5113513;27;20050;-73
2022/01/26 06:16:29;;;;;;;58.15;20.88;;;4.40;99.90;;;;;;5097252;27;20043;-74
2022/01/26 06:18:54;;;;;;;66.85;22.02;;;4.60;99.90;;;;;;5099855;27;20034;-74
2022/01/26 06:21:20;;;;;;;51.10;19.27;;;4.90;99.90;;;;;;5092527;27;20031;-74
2022/01/26 06:23:47;;;;;;;60.30;20.77;;;4.90;99.90;;;;;;5108505;27;20031;-74
2022/01/26 06:26:13;;;;;;;56.13;21.45;;;4.80;99.90;;;;;;5096688;27;20043;-74
2022/01/26 06:28:38;;;;;;;52.53;20.42;;;4.40;99.90;;;;;;5094306;27;20497;-74
2022/01/26 06:31:10;;;;;;;67.47;23.95;;;4.90;99.90;;;;;;5104419;27;20115;-75
2022/01/26 06:33:41;;;;;;;53.63;19.90;;;4.30;99.90;;;;;;5131445;27;20061;-75
2022/01/26 06:36:12;;;;;;;57.63;20.15;;;4.90;99.90;;;;;;5097197;27;20054;-74
2022/01/26 06:38:42;;;;;;;54.35;20.73;;;5.00;99.90;;;;;;5132183;27;20042;-74
2022/01/26 06:41:08;;;;;;;63.17;24.27;;;4.30;99.90;;;;;;5116245;27;20031;-73
2022/01/26 06:43:35;;;;;;;59.20;21.38;;;4.80;99.90;;;;;;5126967;27;20118;-74
2022/01/26 06:46:07;;;;;;;54.20;20.15;;;4.80;99.90;;;;;;5115272;27;20080;-74
2022/01/26 06:48:46;;;;;;;53.40;20.30;;;4.80;99.90;;;;;;5132148;27;20046;-75
2022/01/26 06:51:12;;;;;;;46.10;18.92;;;4.40;99.90;;;;;;5133769;27;20531;-75
2022/01/26 06:53:38;;;;;;;49.05;19.17;;;4.60;99.90;;;;;;5115994;27;20117;-75
2022/01/26 06:56:04;;;;;;;56.38;21.38;;;5.20;99.90;;;;;;5095759;27;20042;-74
2022/01/26 06:58:30;;;;;;;52.78;20.75;;;5.00;99.90;;;;;;5096276;27;20039;-74
2022/01/26 07:00:57;;;;;;;56.30;21.63;;;4.30;99.90;;;;;;5112721;27;20042;-74
2022/01/26 07:03:23;;;;;;;64.20;24.67;;;4.50;99.90;;;;;;5133118;27;20039;-73
2022/01/26 07:05:49;;;;;;;53.08;23.38;;;5.10;99.90;;;;;;5114266;27;20910;-74
2022/01/26 07:08:15;;;;;;;70.70;23.35;;;4.60;99.90;;;;;;5099721;27;20054;-75
2022/01/26 07:10:42;;;;;;;62.17;22.63;;;4.40;99.90;;;;;;5114609;27;20103;-73
2022/01/26 07:13:08;;;;;;;52.30;20.63;;;4.70;99.90;;;;;;5115664;27;20078;-74
2022/01/26 07:23:37;;;;;;;51.88;21.10;;;4.20;99.90;;;;;;5128991;27;20050;-74
2022/01/26 07:26:03;;;;;;;64.10;24.83;;;4.20;99.90;;;;;;5113638;27;20031;-75
2022/01/26 07:28:34;;;;;;;62.63;24.08;;;4.70;99.90;;;;;;5134685;27;20407;-73
2022/01/26 07:31:00;;;;;;;64.75;24.38;;;5.10;99.90;;;;;;5101108;27;20042;-74
2022/01/26 07:33:26;;;;;;;55.88;20.80;;;4.20;99.90;;;;;;5134209;27;20062;-74
2022/01/26 07:35:52;;;;;;;63.55;24.92;;;4.80;99.90;;;;;;5082376;27;20054;-74
2022/01/26 07:38:18;;;;;;;62.83;22.85;;;4.30;99.90;;;;;;5114207;27;20494;-75
2022/01/26 07:40:44;;;;;;;63.45;23.40;;;4.40;99.90;;;;;;5114912;27;20537;-73
2022/01/26 07:43:10;;;;;;;63.33;22.05;;;4.80;99.90;;;;;;5095361;28;20114;-74
2022/01/26 07:45:36;;;;;;;60.08;24.83;;;4.90;99.90;;;;;;5078664;28;20054;-73
2022/01/26 07:48:02;;;;;;;61.28;23.73;;;4.70;99.90;;;;;;5127196;27;20084;-74
2022/01/26 07:50:28;;;;;;;60.47;23.75;;;4.90;99.90;;;;;;5135861;27;20049;-74
2022/01/26 07:52:54;;;;;;;65.97;23.95;;;4.90;99.90;;;;;;5120623;27;20153;-73
2022/01/26 07:55:22;;;;;;;69.10;25.90;;;4.70;99.90;;;;;;5107536;27;20482;-74
2022/01/26 07:57:51;;;;;;;69.28;26.40;;;4.90;99.90;;;;;;5117760;27;20130;-74
2022/01/26 08:00:17;;;;;;;61.95;24.48;;;4.70;99.90;;;;;;5117294;27;20037;-74
2022/01/26 08:02:44;;;;;;;67.30;27.55;;;5.00;99.90;;;;;;5135872;27;20035;-75
2022/01/26 08:05:11;;;;;;;63.58;26.92;;;4.40;99.90;;;;;;5120072;27;20538;-73
2022/01/26 08:07:37;;;;;;;68.93;27.48;;;5.00;99.90;;;;;;5120551;27;20046;-73
2022/01/26 08:10:06;;;;;;;70.38;26.98;;;4.60;99.90;;;;;;5136055;27;20614;-73
2022/01/26 08:12:32;;;;;;;63.28;23.23;;;5.10;99.90;;;;;;5137557;27;20042;-73
2022/01/26 08:14:58;;;;;;;60.47;24.95;;;4.50;99.90;;;;;;5116461;27;20043;-73
2022/01/26 08:17:24;;;;;;;65.47;26.85;;;4.60;99.90;;;;;;5113127;27;20092;-73
2022/01/26 08:19:52;;;;;;;64.57;25.55;;;4.60;99.90;;;;;;5131496;27;20039;-73
2022/01/26 08:22:20;;;;;;;59.28;24.48;;;5.10;99.90;;;;;;5137531;27;20046;-72
2022/01/26 08:24:47;;;;;;;65.78;26.70;;;4.60;99.90;;;;;;5119100;27;20038;-73
2022/01/26 08:27:14;;;;;;;66.05;25.95;;;5.00;99.90;;;;;;5137594;27;20364;-72
2022/01/26 08:30:06;;;;;;;70.55;24.35;;;4.60;99.90;;;;;;5132984;27;20043;-73
2022/01/26 08:32:28;;;;;;;62.58;26.23;;;4.70;99.90;;;;;;5135990;27;20125;-74
2022/01/26 08:34:54;;;;;;;73.10;28.83;;;5.30;99.90;;;;;;5101649;27;20491;-74
2022/01/26 08:37:20;;;;;;;80.93;30.30;;;5.20;99.90;;;;;;5119257;27;20099;-73
2022/01/26 08:39:46;;;;;;;75.22;28.42;;;5.10;99.90;;;;;;5118880;27;20169;-76
2022/01/26 08:42:12;;;;;;;81.18;31.13;;;5.00;99.90;;;;;;5114976;27;20043;-74
2022/01/26 08:44:37;;;;;;;75.47;31.00;;;5.00;99.90;;;;;;5101807;27;20038;-74
2022/01/26 08:47:04;;;;;;;76.45;30.00;;;4.70;99.90;;;;;;5132456;27;20047;-76
2022/01/26 08:49:31;;;;;;;70.43;27.85;;;5.40;99.90;;;;;;5105521;27;20046;-73
2022/01/26 08:51:57;;;;;;;86.97;32.22;;;5.40;99.90;;;;;;5132988;27;20042;-74
2022/01/26 08:54:23;;;;;;;80.55;32.53;;;4.80;99.90;;;;;;5135916;27;20081;-73
2022/01/26 08:56:53;;;;;;;74.18;30.27;;;5.50;99.90;;;;;;5114197;27;20078;-74
2022/01/26 08:59:22;;;;;;;65.68;27.83;;;5.30;99.90;;;;;;5118925;27;20035;-74
2022/01/26 09:01:47;;;;;;;72.72;30.95;;;4.90;99.90;;;;;;5132053;27;20098;-73
2022/01/26 09:04:14;;;;;;;73.45;30.60;;;5.00;99.90;;;;;;5133926;27;20043;-73
2022/01/26 09:06:51;;;;;;;65.80;27.40;;;5.60;99.90;;;;;;5117396;27;20042;-73
2022/01/26 09:09:22;;;;;;;78.97;32.72;;;5.10;99.90;;;;;;5134389;27;20406;-73
2022/01/26 09:11:49;;;;;;;71.97;28.45;;;5.20;99.90;;;;;;5134361;27;20116;-73
2022/01/26 09:14:19;;;;;;;80.60;30.77;;;5.20;99.90;;;;;;5134114;27;20041;-73
2022/01/26 09:16:51;;;;;;;76.75;30.77;;;5.70;99.90;;;;;;5113370;27;20031;-74
2022/01/26 09:19:29;;;;;;;78.97;32.20;;;5.50;99.90;;;;;;5134407;27;20049;-74
2022/01/26 09:22:01;;;;;;;83.47;33.28;;;5.50;99.90;;;;;;5107433;27;20035;-74
2022/01/26 09:24:29;;;;;;;76.00;29.60;;;5.60;99.90;;;;;;5132172;27;20031;-76
2022/01/26 09:26:56;;;;;;;74.88;31.08;;;5.50;99.90;;;;;;5117646;27;20039;-76
2022/01/26 09:29:21;;;;;;;87.00;34.30;;;5.30;99.90;;;;;;5117737;27;20041;-76
2022/01/26 09:31:47;;;;;;;78.43;31.75;;;5.70;99.90;;;;;;5114812;27;20035;-73
2022/01/26 09:34:16;;;;;;;80.85;33.30;;;5.30;99.90;;;;;;5128723;27;20059;-72
2022/01/26 09:36:42;;;;;;;75.75;30.42;;;5.90;99.90;;;;;;5135212;27;20044;-76
2022/01/26 09:39:07;;;;;;;80.10;32.30;;;5.70;99.90;;;;;;5117030;27;20039;-73
2022/01/26 09:41:34;;;;;;;84.80;33.65;;;5.60;99.90;;;;;;5122283;27;20038;-74
2022/01/26 09:44:03;;;;;;;88.15;34.85;;;5.90;99.90;;;;;;5113242;27;20099;-77
2022/01/26 09:46:29;;;;;;;87.50;35.35;;;5.80;99.90;;;;;;5125784;27;20117;-73
2022/01/26 09:48:55;;;;;;;80.43;32.28;;;5.50;99.90;;;;;;5113398;27;20031;-74
2022/01/26 09:51:21;;;;;;;77.85;32.22;;;5.70;99.90;;;;;;5130859;27;20487;-74
2022/01/26 09:54:02;;;;;;;80.65;32.85;;;5.90;99.90;;;;;;5113915;27;20054;-74
2022/01/26 09:56:28;;;;;;;87.47;33.55;;;5.80;99.90;;;;;;5127600;27;20421;-74
2022/01/26 09:58:54;;;;;;;69.90;29.65;;;5.80;99.90;;;;;;5130045;27;20054;-74
2022/01/26 10:01:20;;;;;;;71.50;29.65;;;6.10;99.90;;;;;;5129023;27;20039;-73
2022/01/26 10:03:46;;;;;;;72.50;30.65;;;6.00;99.90;;;;;;5118802;27;20035;-74
2022/01/26 10:06:27;;;;;;;84.57;33.92;;;5.40;99.90;;;;;;5121411;27;20043;-75
2022/01/26 10:09:13;;;;;;;73.75;31.85;;;5.90;99.90;;;;;;5106116;27;20046;-75
2022/01/26 10:17:41;;;;;;;69.22;29.05;;;5.50;99.90;;;;;;5117286;27;20058;-75
2022/01/26 10:20:03;;;;;;;73.47;28.30;;;5.50;99.90;;;;;;5116100;27;20448;-74
2022/01/26 10:22:31;;;;;;;69.18;27.85;;;5.60;99.90;;;;;;5117588;27;20711;-75
2022/01/26 10:25:12;;;;;;;66.38;28.75;;;5.90;99.90;;;;;;5122939;27;20479;-74
2022/01/26 10:27:41;;;;;;;69.70;29.38;;;6.20;99.90;;;;;;5106112;27;20045;-75
2022/01/26 10:30:09;;;;;;;71.95;29.65;;;6.00;99.90;;;;;;5123909;27;20428;-74
2022/01/26 10:32:36;;;;;;;74.88;29.02;;;5.50;99.90;;;;;;5106860;27;20055;-74
2022/01/26 10:35:04;;;;;;;63.72;26.88;;;5.80;99.90;;;;;;5082332;28;20096;-75
2022/01/26 10:37:31;;;;;;;68.60;28.00;;;6.10;99.90;;;;;;5077128;28;20035;-75
2022/01/26 10:40:16;;;;;;;63.33;26.42;;;5.80;99.90;;;;;;5072899;28;20793;-75
2022/01/26 10:43:04;;;;;;;;;;;5.80;99.90;;;;;;5083856;28;20043;-74
2022/01/26 10:45:57;;;;;;;55.05;25.08;;;5.90;99.90;;;;;;5086914;28;19959;-75
2022/01/26 10:53:54;;;;;;;56.25;24.85;;;6.30;99.90;;;;;;5096842;28;20105;-72
2022/01/26 10:56:19;;;;;;;62.67;25.45;;;6.20;99.90;;;;;;5085272;28;20031;-73
2022/01/26 10:58:46;;;;;;;66.45;26.10;;;6.20;99.90;;;;;;5081860;28;20066;-72
2022/01/26 11:01:11;;;;;;;62.67;25.05;;;6.20;99.90;;;;;;5101305;28;20047;-72
2022/01/26 11:03:38;;;;;;;57.03;24.45;;;6.20;99.90;;;;;;5102222;28;20393;-72
2022/01/26 11:06:05;;;;;;;67.13;27.23;;;5.80;99.90;;;;;;5084598;28;20084;-72
2022/01/26 11:08:36;;;;;;;61.20;26.52;;;5.90;99.90;;;;;;5100785;28;20036;-72
2022/01/26 11:11:02;;;;;;;63.13;26.65;;;6.10;99.90;;;;;;5101671;28;20039;-73
2022/01/26 11:13:30;;;;;;;55.90;25.30;;;5.90;99.90;;;;;;5103604;28;20043;-73
2022/01/26 11:16:09;;;;;;;57.90;23.75;;;6.00;99.90;;;;;;5101191;28;20103;-74
2022/01/26 11:18:46;;;;;;;54.00;23.90;;;5.70;99.90;;;;;;5098283;28;20043;-73
2022/01/26 11:21:23;;;;;;;60.20;24.63;;;6.20;99.90;;;;;;5084197;28;20050;-73
2022/01/26 11:23:50;;;;;;;53.70;21.65;;;6.20;99.90;;;;;;5087797;28;20035;-73
2022/01/26 11:26:25;;;;;;;73.05;25.38;;;5.70;99.90;;;;;;5108783;28;20879;-72
2022/01/26 11:28:51;;;;;;;52.22;22.33;;;5.80;99.90;;;;;;5105673;28;20059;-72
2022/01/26 11:31:18;;;;;;;57.58;25.65;;;5.70;99.90;;;;;;5083450;28;20067;-72
2022/01/26 11:33:48;;;;;;;63.03;24.70;;;6.10;99.90;;;;;;5071244;28;20039;-76
2022/01/26 11:36:16;;;;;;;54.67;23.75;;;5.90;99.90;;;;;;5127322;27;20063;-72
2022/01/26 11:47:10;;;;;;;63.33;24.88;;;6.50;99.90;;;;;;5128669;27;20046;-73
2022/01/26 11:49:38;;;;;;;64.78;24.85;;;6.70;99.90;;;;;;5111500;27;20501;-73
2022/01/26 11:52:05;;;;;;;60.28;24.15;;;6.70;99.90;;;;;;5129058;27;20594;-72
2022/01/26 11:54:48;;;;;;;67.53;26.17;;;6.90;99.90;;;;;;5111562;27;20077;-73
2022/01/26 11:57:16;;;;;;;62.70;23.98;;;6.50;99.90;;;;;;5111767;27;20065;-73
2022/01/26 11:59:50;;;;;;;65.85;27.05;;;6.30;99.90;;;;;;5126536;27;20039;-73
2022/01/26 12:05:12;;;;;;;61.05;25.60;;;7.00;99.90;;;;;;5127901;27;20050;-73
2022/01/26 12:07:48;;;;;;;61.95;25.00;;;6.30;99.90;;;;;;5129052;27;20051;-74
2022/01/26 12:10:27;;;;;;;55.53;22.77;;;6.30;99.90;;;;;;5129332;27;20092;-74
2022/01/26 12:13:16;;;;;;;54.75;23.77;;;6.30;99.90;;;;;;5131524;27;20043;-73
2022/01/26 12:15:51;;;;;;;60.05;24.63;;;6.60;99.90;;;;;;5111786;27;20062;-73
2022/01/26 12:18:38;;;;;;;54.70;23.17;;;6.90;99.90;;;;;;5129166;27;20038;-73
2022/01/26 12:43:38;;;;;;;65.47;27.30;;;7.10;99.90;;;;;;5118145;27;20720;-72
2022/01/26 12:46:07;;;;;;;65.63;28.50;;;7.30;99.90;;;;;;5107564;27;20093;-74
2022/01/26 12:48:34;;;;;;;68.47;25.40;;;7.10;99.90;;;;;;5112323;27;20036;-73
2022/01/26 12:51:03;;;;;;;58.42;23.38;;;6.70;99.90;;;;;;5122646;27;20035;-72
2022/01/26 12:53:30;;;;;;;63.08;25.25;;;7.10;99.90;;;;;;5123951;27;20039;-72
2022/01/26 12:55:58;;;;;;;60.25;24.55;;;7.10;99.90;;;;;;5124517;27;20425;-72
2022/01/26 12:58:30;;;;;;;62.10;25.83;;;7.30;99.90;;;;;;5125485;27;20051;-71
2022/01/26 13:01:10;;;;;;;64.10;26.05;;;6.70;99.90;;;;;;5123962;27;20037;-72
2022/01/26 13:03:40;;;;;;;63.22;25.83;;;7.00;99.90;;;;;;5106966;27;20118;-71
2022/01/26 13:06:22;;;;;;;58.95;24.98;;;7.30;99.90;;;;;;5124172;27;20689;-72
2022/01/26 13:08:54;;;;;;;69.03;27.73;;;7.20;99.90;;;;;;5125071;27;20091;-72
2022/01/26 13:11:30;;;;;;;60.33;25.40;;;7.30;99.90;;;;;;5106583;27;20773;-72
2022/01/26 13:14:27;;;;;;;58.35;24.70;;;7.40;99.90;;;;;;5122390;27;20050;-72
2022/01/26 13:17:33;;;;;;;68.43;26.85;;;7.40;99.90;;;;;;5105122;28;20036;-73
2022/01/26 13:20:26;;;;;;;61.80;25.52;;;7.60;99.90;;;;;;5111776;27;20785;-73
2022/01/26 13:39:39;;;;;;;61.25;23.13;;;7.10;99.90;;;;;;5122915;27;20062;-72
2022/01/26 13:47:57;;;;;;;68.22;29.65;;;6.90;99.90;;;;;;5122141;27;20078;-73
2022/01/26 14:00:21;;;;;;;51.30;22.55;;;7.30;99.90;;;;;;5123483;27;20724;-73
2022/01/26 14:02:51;;;;;;;62.75;24.17;;;7.50;99.90;;;;;;5123413;27;20043;-73
2022/01/26 14:05:17;;;;;;;47.00;21.02;;;7.00;99.90;;;;;;5104207;27;20031;-73
2022/01/26 14:07:43;;;;;;;55.30;22.98;;;7.60;99.90;;;;;;5107403;27;20459;-76
2022/01/26 14:10:09;;;;;;;52.60;23.48;;;7.50;99.90;;;;;;5101793;28;20047;-72
2022/01/26 14:12:39;;;;;;;55.22;22.35;;;7.20;99.90;;;;;;5100837;27;20050;-71
2022/01/26 14:15:08;;;;;;;49.92;22.48;;;7.50;99.90;;;;;;5101751;27;20131;-72
2022/01/26 14:17:57;;;;;;;54.42;22.95;;;7.20;99.90;;;;;;5122283;27;20043;-72
2022/01/26 14:23:15;;;;;;;56.88;24.40;;;7.40;99.90;;;;;;5122838;27;20103;-71
2022/01/26 14:25:45;;;;;;;54.72;23.60;;;6.90;99.90;;;;;;5105935;27;20045;-73
2022/01/26 14:28:13;;;;;;;50.00;21.77;;;7.40;99.90;;;;;;5119614;27;20053;-71
2022/01/26 14:35:53;;;;;;;45.83;20.77;;;6.80;99.90;;;;;;5105625;27;20067;-71
2022/01/26 14:52:42;;;;;;;44.42;19.23;;;7.00;99.90;;;;;;5113377;27;20117;-72
2022/01/26 14:55:25;;;;;;;43.92;18.95;;;7.10;99.90;;;;;;5113914;27;20329;-72
2022/01/26 15:08:49;;;;;;;43.58;20.08;;;7.30;99.90;;;;;;5104013;27;20051;-74
2022/01/26 15:45:04;;;;;;;40.67;18.35;;;7.00;99.90;;;;;;5073522;28;20407;-72
2022/01/26 15:49:46;;;;;;;41.90;20.00;;;7.30;99.90;;;;;;5097860;28;20046;-73
2022/01/26 16:05:23;;;;;;;45.42;20.17;;;7.20;99.90;;;;;;5096702;28;20157;-73
2022/01/26 16:08:15;;;;;;;43.55;19.63;;;7.40;99.90;;;;;;5120464;28;20070;-72
2022/01/26 18:49:38;;;;;;;40.75;18.13;;;7.50;99.90;;;;;;5106280;27;20039;-73
2022/01/26 18:52:05;;;;;;;42.20;19.60;;;7.50;99.90;;;;;;5123156;27;20092;-73
2022/01/26 18:54:36;;;;;;;40.97;17.70;;;8.10;99.90;;;;;;5119376;27;20031;-73
2022/01/26 18:57:05;;;;;;;35.97;17.77;;;7.70;99.90;;;;;;5108838;27;20146;-75
2022/01/26 18:59:31;;;;;;;42.65;17.35;;;7.80;99.90;;;;;;5105883;28;20043;-74
2022/01/26 19:01:58;;;;;;;31.60;15.07;;;8.20;99.90;;;;;;5117453;27;20126;-73
2022/01/26 19:04:31;;;;;;;29.45;15.23;;;8.30;99.90;;;;;;5122328;27;20036;-74
2022/01/26 19:06:58;;;;;;;37.05;16.13;;;7.70;99.90;;;;;;5122677;27;20047;-74
2022/01/26 19:09:27;;;;;;;34.38;15.82;;;8.30;99.90;;;;;;5119899;27;20058;-73
2022/01/26 19:11:54;;;;;;;38.40;15.98;;;7.90;99.90;;;;;;5101427;28;20043;-73
2022/01/26 19:14:24;;;;;;;34.30;15.52;;;8.20;99.90;;;;;;5097818;28;20059;-73
2022/01/26 19:17:00;;;;;;;32.83;14.82;;;8.50;99.90;;;;;;5112791;27;20040;-74
2022/01/26 19:23:04;;;;;;;32.33;16.40;;;7.80;99.90;;;;;;5091738;28;20055;-73
2022/01/26 19:25:31;;;;;;;27.98;14.35;;;8.10;99.90;;;;;;5104614;28;20059;-73
2022/01/26 19:27:59;;;;;;;28.88;14.02;;;8.40;99.90;;;;;;5116770;28;20047;-73
2022/01/26 19:51:38;;;;;;;26.13;13.68;;;8.40;99.90;;;;;;5103179;28;20100;-71
2022/01/26 19:54:04;;;;;;;28.73;13.98;;;7.90;99.90;;;;;;5105365;28;20742;-72
2022/01/26 19:56:29;;;;;;;30.13;14.18;;;8.20;99.90;;;;;;5053908;28;20050;-71
2022/01/26 19:58:55;;;;;;;31.52;15.02;;;8.10;99.90;;;;;;5100852;27;20413;-72
2022/01/26 20:01:21;;;;;;;28.45;13.77;;;8.10;99.90;;;;;;5103501;27;20142;-73
2022/01/26 20:03:48;;;;;;;30.38;15.68;;;8.10;99.90;;;;;;5068671;28;20036;-73
2022/01/26 20:06:13;;;;;;;27.85;15.43;;;8.20;99.90;;;;;;5090610;28;20497;-73
2022/01/26 20:08:52;;;;;;;29.85;15.00;;;8.00;99.90;;;;;;5086815;28;20052;-71
2022/01/26 20:11:27;;;;;;;31.75;14.57;;;8.40;99.90;;;;;;5087486;28;20040;-73